sensor_id;sensor_type;location;lat;lon;timestamp;P1;durP1;ratioP1;P2;durP2;ratioP2
40781;SDS011;26493;51.938;7.626;2023-03-14T00:00:54;18.77;;;11.85;;
40781;SDS011;26493;51.938;7.626;2023-03-14T00:03:20;17.83;;;12.18;;
40781;SDS011;26493;51.938;7.626;2023-03-14T00:05:46;18.50;;;12.55;;
40781;SDS011;26493;51.938;7.626;2023-03-14T00:08:12;17.77;;;12.20;;
40781;SDS011;26493;51.938;7.626;2023-03-14T00:10:38;18.73;;;13.00;;
40781;SDS011;26493;51.938;7.626;2023-03-14T00:13:04;16.67;;;11.93;;
40781;SDS011;26493;51.938;7.626;2023-03-14T00:15:31;18.00;;;12.30;;
40781;SDS011;26493;51.938;7.626;2023-03-14T00:17:58;18.10;;;12.50;;
40781;SDS011;26493;51.938;7.626;2023-03-14T00:20:24;18.02;;;12.50;;
40781;SDS011;26493;51.938;7.626;2023-03-14T00:22:49;18.45;;;12.63;;
40781;SDS011;26493;51.938;7.626;2023-03-14T00:25:16;17.17;;;12.38;;
40781;SDS011;26493;51.938;7.626;2023-03-14T00:27:41;19.20;;;13.05;;
40781;SDS011;26493;51.938;7.626;2023-03-14T00:30:08;19.17;;;13.88;;
40781;SDS011;26493;51.938;7.626;2023-03-14T00:32:34;24.70;;;14.15;;
40781;SDS011;26493;51.938;7.626;2023-03-14T00:35:00;17.77;;;12.77;;
40781;SDS011;26493;51.938;7.626;2023-03-14T00:37:26;18.55;;;13.43;;
40781;SDS011;26493;51.938;7.626;2023-03-14T00:39:52;19.40;;;13.68;;
40781;SDS011;26493;51.938;7.626;2023-03-14T00:42:18;18.50;;;12.77;;
40781;SDS011;26493;51.938;7.626;2023-03-14T00:44:44;18.25;;;12.35;;
40781;SDS011;26493;51.938;7.626;2023-03-14T00:47:10;16.88;;;12.98;;
40781;SDS011;26493;51.938;7.626;2023-03-14T00:49:36;22.65;;;12.68;;
40781;SDS011;26493;51.938;7.626;2023-03-14T00:52:02;18.95;;;12.63;;
40781;SDS011;26493;51.938;7.626;2023-03-14T00:54:28;18.80;;;12.80;;
40781;SDS011;26493;51.938;7.626;2023-03-14T00:56:55;19.67;;;12.43;;
40781;SDS011;26493;51.938;7.626;2023-03-14T00:59:21;17.90;;;13.38;;
40781;SDS011;26493;51.938;7.626;2023-03-14T01:01:47;17.08;;;12.38;;
40781;SDS011;26493;51.938;7.626;2023-03-14T01:04:13;18.95;;;11.88;;
40781;SDS011;26493;51.938;7.626;2023-03-14T01:06:39;17.25;;;12.43;;
40781;SDS011;26493;51.938;7.626;2023-03-14T01:09:05;17.08;;;12.32;;
40781;SDS011;26493;51.938;7.626;2023-03-14T01:11:32;18.75;;;12.68;;
40781;SDS011;26493;51.938;7.626;2023-03-14T01:13:59;16.58;;;12.27;;
40781;SDS011;26493;51.938;7.626;2023-03-14T01:16:28;17.67;;;11.82;;
40781;SDS011;26493;51.938;7.626;2023-03-14T01:18:54;18.27;;;12.02;;
40781;SDS011;26493;51.938;7.626;2023-03-14T01:21:24;16.73;;;11.63;;
40781;SDS011;26493;51.938;7.626;2023-03-14T01:23:51;15.95;;;11.52;;
40781;SDS011;26493;51.938;7.626;2023-03-14T01:26:19;15.98;;;11.65;;
40781;SDS011;26493;51.938;7.626;2023-03-14T01:28:46;17.65;;;11.63;;
40781;SDS011;26493;51.938;7.626;2023-03-14T01:31:12;17.73;;;11.82;;
40781;SDS011;26493;51.938;7.626;2023-03-14T01:33:39;18.55;;;11.95;;
40781;SDS011;26493;51.938;7.626;2023-03-14T01:36:05;20.48;;;11.07;;
40781;SDS011;26493;51.938;7.626;2023-03-14T01:38:32;19.70;;;11.50;;
40781;SDS011;26493;51.938;7.626;2023-03-14T01:40:59;19.88;;;11.40;;
40781;SDS011;26493;51.938;7.626;2023-03-14T01:43:25;19.33;;;11.43;;
40781;SDS011;26493;51.938;7.626;2023-03-14T01:48:24;16.60;;;12.45;;
40781;SDS011;26493;51.938;7.626;2023-03-14T01:50:51;19.08;;;15.70;;
40781;SDS011;26493;51.938;7.626;2023-03-14T01:53:17;26.50;;;18.92;;
40781;SDS011;26493;51.938;7.626;2023-03-14T01:55:46;26.35;;;24.05;;
40781;SDS011;26493;51.938;7.626;2023-03-14T01:58:12;46.70;;;43.08;;
40781;SDS011;26493;51.938;7.626;2023-03-14T02:00:38;50.65;;;47.00;;
40781;SDS011;26493;51.938;7.626;2023-03-14T02:03:11;59.85;;;55.85;;
40781;SDS011;26493;51.938;7.626;2023-03-14T02:05:38;56.88;;;52.25;;
40781;SDS011;26493;51.938;7.626;2023-03-14T02:08:05;47.80;;;44.25;;
40781;SDS011;26493;51.938;7.626;2023-03-14T02:10:35;43.47;;;40.17;;
40781;SDS011;26493;51.938;7.626;2023-03-14T02:13:02;44.92;;;41.38;;
40781;SDS011;26493;51.938;7.626;2023-03-14T02:15:28;44.05;;;40.42;;
40781;SDS011;26493;51.938;7.626;2023-03-14T02:17:55;39.00;;;35.78;;
40781;SDS011;26493;51.938;7.626;2023-03-14T02:20:38;38.80;;;35.50;;
40781;SDS011;26493;51.938;7.626;2023-03-14T02:23:08;36.03;;;33.13;;
40781;SDS011;26493;51.938;7.626;2023-03-14T02:28:03;34.05;;;31.10;;
40781;SDS011;26493;51.938;7.626;2023-03-14T02:30:29;34.50;;;31.50;;
40781;SDS011;26493;51.938;7.626;2023-03-14T02:33:10;34.15;;;31.23;;
40781;SDS011;26493;51.938;7.626;2023-03-14T02:40:31;33.10;;;30.30;;
40781;SDS011;26493;51.938;7.626;2023-03-14T02:42:57;33.65;;;30.70;;
40781;SDS011;26493;51.938;7.626;2023-03-14T02:47:52;32.95;;;30.13;;
40781;SDS011;26493;51.938;7.626;2023-03-14T02:50:20;32.83;;;29.92;;
40781;SDS011;26493;51.938;7.626;2023-03-14T02:52:47;32.83;;;29.92;;
40781;SDS011;26493;51.938;7.626;2023-03-14T02:55:14;32.83;;;30.02;;
40781;SDS011;26493;51.938;7.626;2023-03-14T02:57:40;32.40;;;29.38;;
40781;SDS011;26493;51.938;7.626;2023-03-14T03:00:06;31.85;;;28.90;;
40781;SDS011;26493;51.938;7.626;2023-03-14T03:02:33;32.13;;;29.17;;
40781;SDS011;26493;51.938;7.626;2023-03-14T03:04:59;30.33;;;27.52;;
40781;SDS011;26493;51.938;7.626;2023-03-14T03:07:25;31.02;;;28.38;;
40781;SDS011;26493;51.938;7.626;2023-03-14T03:09:51;30.63;;;28.13;;
40781;SDS011;26493;51.938;7.626;2023-03-14T03:12:17;31.30;;;28.50;;
40781;SDS011;26493;51.938;7.626;2023-03-14T03:14:43;30.20;;;27.70;;
40781;SDS011;26493;51.938;7.626;2023-03-14T03:17:09;31.35;;;28.65;;
40781;SDS011;26493;51.938;7.626;2023-03-14T03:19:35;28.83;;;26.35;;
40781;SDS011;26493;51.938;7.626;2023-03-14T03:22:01;30.17;;;27.38;;
40781;SDS011;26493;51.938;7.626;2023-03-14T03:24:27;28.90;;;26.33;;
40781;SDS011;26493;51.938;7.626;2023-03-14T03:26:53;29.00;;;26.42;;
40781;SDS011;26493;51.938;7.626;2023-03-14T03:29:19;28.58;;;26.08;;
40781;SDS011;26493;51.938;7.626;2023-03-14T03:31:45;27.42;;;24.58;;
40781;SDS011;26493;51.938;7.626;2023-03-14T03:34:12;25.83;;;23.45;;
40781;SDS011;26493;51.938;7.626;2023-03-14T03:36:38;24.40;;;21.88;;
40781;SDS011;26493;51.938;7.626;2023-03-14T03:39:04;24.05;;;21.50;;
40781;SDS011;26493;51.938;7.626;2023-03-14T03:41:30;22.80;;;20.58;;
40781;SDS011;26493;51.938;7.626;2023-03-14T03:43:56;21.00;;;18.80;;
40781;SDS011;26493;51.938;7.626;2023-03-14T03:46:22;20.60;;;18.50;;
40781;SDS011;26493;51.938;7.626;2023-03-14T03:48:48;21.90;;;18.70;;
40781;SDS011;26493;51.938;7.626;2023-03-14T03:51:19;20.73;;;18.42;;
40781;SDS011;26493;51.938;7.626;2023-03-14T03:53:45;20.33;;;18.23;;
40781;SDS011;26493;51.938;7.626;2023-03-14T03:56:11;22.30;;;18.85;;
40781;SDS011;26493;51.938;7.626;2023-03-14T03:58:37;21.98;;;18.83;;
40781;SDS011;26493;51.938;7.626;2023-03-14T04:01:04;22.38;;;18.58;;
40781;SDS011;26493;51.938;7.626;2023-03-14T04:03:30;21.88;;;18.83;;
40781;SDS011;26493;51.938;7.626;2023-03-14T04:06:04;22.38;;;18.63;;
40781;SDS011;26493;51.938;7.626;2023-03-14T04:08:30;25.00;;;19.10;;
40781;SDS011;26493;51.938;7.626;2023-03-14T04:10:57;22.08;;;17.60;;
40781;SDS011;26493;51.938;7.626;2023-03-14T04:13:23;22.35;;;17.40;;
40781;SDS011;26493;51.938;7.626;2023-03-14T04:15:50;28.45;;;19.45;;
40781;SDS011;26493;51.938;7.626;2023-03-14T04:18:16;23.80;;;18.65;;
40781;SDS011;26493;51.938;7.626;2023-03-14T04:20:42;20.42;;;17.10;;
40781;SDS011;26493;51.938;7.626;2023-03-14T04:23:08;21.77;;;18.40;;
40781;SDS011;26493;51.938;7.626;2023-03-14T04:25:34;20.23;;;17.38;;
40781;SDS011;26493;51.938;7.626;2023-03-14T04:28:01;20.98;;;16.85;;
40781;SDS011;26493;51.938;7.626;2023-03-14T04:30:28;19.77;;;16.83;;
40781;SDS011;26493;51.938;7.626;2023-03-14T04:32:54;19.75;;;16.85;;
40781;SDS011;26493;51.938;7.626;2023-03-14T04:35:20;21.23;;;17.25;;
40781;SDS011;26493;51.938;7.626;2023-03-14T04:37:46;21.52;;;17.50;;
40781;SDS011;26493;51.938;7.626;2023-03-14T04:40:14;20.30;;;16.07;;
40781;SDS011;26493;51.938;7.626;2023-03-14T04:42:40;18.92;;;16.02;;
40781;SDS011;26493;51.938;7.626;2023-03-14T04:45:06;20.02;;;16.70;;
40781;SDS011;26493;51.938;7.626;2023-03-14T04:47:32;18.73;;;15.88;;
40781;SDS011;26493;51.938;7.626;2023-03-14T04:49:58;19.27;;;15.75;;
40781;SDS011;26493;51.938;7.626;2023-03-14T04:52:25;20.08;;;15.35;;
40781;SDS011;26493;51.938;7.626;2023-03-14T04:54:51;22.80;;;15.38;;
40781;SDS011;26493;51.938;7.626;2023-03-14T04:57:17;22.25;;;15.32;;
40781;SDS011;26493;51.938;7.626;2023-03-14T04:59:43;20.45;;;15.55;;
40781;SDS011;26493;51.938;7.626;2023-03-14T05:02:09;17.85;;;14.35;;
40781;SDS011;26493;51.938;7.626;2023-03-14T05:04:35;19.77;;;15.68;;
40781;SDS011;26493;51.938;7.626;2023-03-14T05:07:01;21.30;;;16.02;;
40781;SDS011;26493;51.938;7.626;2023-03-14T05:09:27;20.35;;;15.50;;
40781;SDS011;26493;51.938;7.626;2023-03-14T05:11:53;24.85;;;16.95;;
40781;SDS011;26493;51.938;7.626;2023-03-14T05:14:19;23.35;;;16.48;;
40781;SDS011;26493;51.938;7.626;2023-03-14T05:16:45;23.55;;;16.48;;
40781;SDS011;26493;51.938;7.626;2023-03-14T05:19:11;20.13;;;15.20;;
40781;SDS011;26493;51.938;7.626;2023-03-14T05:21:37;23.20;;;16.25;;
40781;SDS011;26493;51.938;7.626;2023-03-14T05:24:03;20.63;;;15.40;;
40781;SDS011;26493;51.938;7.626;2023-03-14T05:26:29;19.35;;;15.45;;
40781;SDS011;26493;51.938;7.626;2023-03-14T05:28:55;19.95;;;14.63;;
40781;SDS011;26493;51.938;7.626;2023-03-14T05:31:21;18.60;;;14.93;;
40781;SDS011;26493;51.938;7.626;2023-03-14T05:33:47;18.27;;;15.10;;
40781;SDS011;26493;51.938;7.626;2023-03-14T05:36:13;20.65;;;15.50;;
40781;SDS011;26493;51.938;7.626;2023-03-14T05:38:39;19.20;;;15.30;;
40781;SDS011;26493;51.938;7.626;2023-03-14T05:41:05;19.08;;;15.27;;
40781;SDS011;26493;51.938;7.626;2023-03-14T05:43:31;18.92;;;15.45;;
40781;SDS011;26493;51.938;7.626;2023-03-14T05:45:57;17.83;;;15.10;;
40781;SDS011;26493;51.938;7.626;2023-03-14T05:48:23;17.95;;;15.20;;
40781;SDS011;26493;51.938;7.626;2023-03-14T05:50:58;17.33;;;14.73;;
40781;SDS011;26493;51.938;7.626;2023-03-14T05:53:25;18.10;;;15.40;;
40781;SDS011;26493;51.938;7.626;2023-03-14T05:55:54;18.38;;;16.15;;
40781;SDS011;26493;51.938;7.626;2023-03-14T05:58:20;18.02;;;15.55;;
40781;SDS011;26493;51.938;7.626;2023-03-14T06:00:47;18.70;;;15.65;;
40781;SDS011;26493;51.938;7.626;2023-03-14T06:03:13;18.23;;;16.20;;
40781;SDS011;26493;51.938;7.626;2023-03-14T06:05:39;17.75;;;15.80;;
40781;SDS011;26493;51.938;7.626;2023-03-14T06:08:05;17.67;;;15.77;;
40781;SDS011;26493;51.938;7.626;2023-03-14T06:10:31;17.65;;;15.80;;
40781;SDS011;26493;51.938;7.626;2023-03-14T06:15:23;19.38;;;16.00;;
40781;SDS011;26493;51.938;7.626;2023-03-14T06:17:48;18.55;;;16.65;;
40781;SDS011;26493;51.938;7.626;2023-03-14T06:20:15;18.42;;;16.52;;
40781;SDS011;26493;51.938;7.626;2023-03-14T06:22:41;18.23;;;16.38;;
40781;SDS011;26493;51.938;7.626;2023-03-14T06:25:07;18.95;;;16.98;;
40781;SDS011;26493;51.938;7.626;2023-03-14T06:27:33;20.30;;;18.10;;
40781;SDS011;26493;51.938;7.626;2023-03-14T06:29:59;21.75;;;19.55;;
40781;SDS011;26493;51.938;7.626;2023-03-14T06:32:25;28.13;;;25.63;;
40781;SDS011;26493;51.938;7.626;2023-03-14T06:34:51;42.70;;;39.30;;
40781;SDS011;26493;51.938;7.626;2023-03-14T06:37:18;46.05;;;42.13;;
40781;SDS011;26493;51.938;7.626;2023-03-14T06:39:44;45.28;;;41.38;;
40781;SDS011;26493;51.938;7.626;2023-03-14T06:42:10;44.17;;;40.67;;
40781;SDS011;26493;51.938;7.626;2023-03-14T06:44:36;45.60;;;41.88;;
40781;SDS011;26493;51.938;7.626;2023-03-14T06:47:02;44.65;;;40.95;;
40781;SDS011;26493;51.938;7.626;2023-03-14T06:49:28;43.78;;;40.28;;
40781;SDS011;26493;51.938;7.626;2023-03-14T06:51:57;41.72;;;38.33;;
40781;SDS011;26493;51.938;7.626;2023-03-14T06:54:23;38.90;;;35.50;;
40781;SDS011;26493;51.938;7.626;2023-03-14T06:56:49;38.03;;;35.00;;
40781;SDS011;26493;51.938;7.626;2023-03-14T06:59:15;36.60;;;33.70;;
40781;SDS011;26493;51.938;7.626;2023-03-14T07:01:41;35.25;;;32.45;;
40781;SDS011;26493;51.938;7.626;2023-03-14T07:04:08;36.13;;;33.22;;
40781;SDS011;26493;51.938;7.626;2023-03-14T07:06:34;36.55;;;33.65;;
40781;SDS011;26493;51.938;7.626;2023-03-14T07:09:00;36.42;;;33.50;;
40781;SDS011;26493;51.938;7.626;2023-03-14T07:11:26;38.25;;;35.35;;
40781;SDS011;26493;51.938;7.626;2023-03-14T07:13:52;38.67;;;35.58;;
40781;SDS011;26493;51.938;7.626;2023-03-14T07:16:18;43.67;;;39.97;;
40781;SDS011;26493;51.938;7.626;2023-03-14T07:18:44;44.67;;;41.13;;
40781;SDS011;26493;51.938;7.626;2023-03-14T07:21:11;44.42;;;40.85;;
40781;SDS011;26493;51.938;7.626;2023-03-14T07:23:37;42.80;;;39.30;;
40781;SDS011;26493;51.938;7.626;2023-03-14T07:26:03;42.88;;;39.47;;
40781;SDS011;26493;51.938;7.626;2023-03-14T07:28:29;41.97;;;38.58;;
40781;SDS011;26493;51.938;7.626;2023-03-14T07:30:56;43.60;;;40.20;;
40781;SDS011;26493;51.938;7.626;2023-03-14T07:33:22;43.92;;;40.33;;
40781;SDS011;26493;51.938;7.626;2023-03-14T07:35:48;41.83;;;38.42;;
40781;SDS011;26493;51.938;7.626;2023-03-14T07:38:14;43.28;;;39.78;;
40781;SDS011;26493;51.938;7.626;2023-03-14T07:40:41;41.75;;;38.28;;
40781;SDS011;26493;51.938;7.626;2023-03-14T07:43:07;40.90;;;37.60;;
40781;SDS011;26493;51.938;7.626;2023-03-14T07:45:33;40.63;;;37.13;;
40781;SDS011;26493;51.938;7.626;2023-03-14T07:47:59;38.60;;;35.33;;
40781;SDS011;26493;51.938;7.626;2023-03-14T07:50:27;39.08;;;35.40;;
40781;SDS011;26493;51.938;7.626;2023-03-14T07:52:53;37.58;;;34.28;;
40781;SDS011;26493;51.938;7.626;2023-03-14T07:55:20;36.72;;;33.40;;
40781;SDS011;26493;51.938;7.626;2023-03-14T07:57:46;36.35;;;33.15;;
40781;SDS011;26493;51.938;7.626;2023-03-14T08:00:13;36.42;;;33.10;;
40781;SDS011;26493;51.938;7.626;2023-03-14T08:02:39;35.67;;;32.47;;
40781;SDS011;26493;51.938;7.626;2023-03-14T08:05:06;35.08;;;31.98;;
40781;SDS011;26493;51.938;7.626;2023-03-14T08:07:32;34.58;;;31.58;;
40781;SDS011;26493;51.938;7.626;2023-03-14T08:09:58;34.28;;;31.27;;
40781;SDS011;26493;51.938;7.626;2023-03-14T08:12:24;34.22;;;31.23;;
40781;SDS011;26493;51.938;7.626;2023-03-14T08:14:50;34.17;;;31.17;;
40781;SDS011;26493;51.938;7.626;2023-03-14T08:17:16;35.05;;;32.00;;
40781;SDS011;26493;51.938;7.626;2023-03-14T08:19:42;34.58;;;31.50;;
40781;SDS011;26493;51.938;7.626;2023-03-14T08:22:08;34.58;;;31.55;;
40781;SDS011;26493;51.938;7.626;2023-03-14T08:24:34;34.33;;;31.23;;
40781;SDS011;26493;51.938;7.626;2023-03-14T08:27:00;35.97;;;32.88;;
40781;SDS011;26493;51.938;7.626;2023-03-14T08:29:26;35.05;;;32.00;;
40781;SDS011;26493;51.938;7.626;2023-03-14T08:31:52;35.60;;;32.40;;
40781;SDS011;26493;51.938;7.626;2023-03-14T08:34:19;33.22;;;30.23;;
40781;SDS011;26493;51.938;7.626;2023-03-14T08:36:46;33.38;;;30.48;;
40781;SDS011;26493;51.938;7.626;2023-03-14T08:39:12;31.67;;;28.98;;
40781;SDS011;26493;51.938;7.626;2023-03-14T08:41:38;31.20;;;28.60;;
40781;SDS011;26493;51.938;7.626;2023-03-14T08:44:06;34.13;;;31.08;;
40781;SDS011;26493;51.938;7.626;2023-03-14T08:46:33;35.08;;;32.08;;
40781;SDS011;26493;51.938;7.626;2023-03-14T08:48:59;34.40;;;31.42;;
40781;SDS011;26493;51.938;7.626;2023-03-14T08:51:25;34.15;;;31.15;;
40781;SDS011;26493;51.938;7.626;2023-03-14T08:53:51;34.13;;;31.15;;
40781;SDS011;26493;51.938;7.626;2023-03-14T08:56:17;34.38;;;31.40;;
40781;SDS011;26493;51.938;7.626;2023-03-14T08:58:43;35.88;;;32.83;;
40781;SDS011;26493;51.938;7.626;2023-03-14T09:01:09;36.38;;;33.38;;
40781;SDS011;26493;51.938;7.626;2023-03-14T09:03:36;36.95;;;33.85;;
40781;SDS011;26493;51.938;7.626;2023-03-14T09:06:05;37.90;;;34.70;;
40781;SDS011;26493;51.938;7.626;2023-03-14T09:08:32;37.25;;;33.95;;
40781;SDS011;26493;51.938;7.626;2023-03-14T09:10:58;35.90;;;32.80;;
40781;SDS011;26493;51.938;7.626;2023-03-14T09:13:24;37.20;;;34.00;;
40781;SDS011;26493;51.938;7.626;2023-03-14T09:15:54;36.63;;;33.63;;
40781;SDS011;26493;51.938;7.626;2023-03-14T09:18:20;36.35;;;33.28;;
40781;SDS011;26493;51.938;7.626;2023-03-14T09:20:47;34.42;;;31.55;;
40781;SDS011;26493;51.938;7.626;2023-03-14T09:23:14;33.92;;;31.02;;
40781;SDS011;26493;51.938;7.626;2023-03-14T09:25:40;34.45;;;31.55;;
40781;SDS011;26493;51.938;7.626;2023-03-14T09:28:06;35.33;;;32.33;;
40781;SDS011;26493;51.938;7.626;2023-03-14T09:30:32;33.58;;;30.80;;
40781;SDS011;26493;51.938;7.626;2023-03-14T09:32:58;34.42;;;31.63;;
40781;SDS011;26493;51.938;7.626;2023-03-14T09:35:25;35.63;;;32.63;;
40781;SDS011;26493;51.938;7.626;2023-03-14T09:37:51;39.88;;;36.30;;
40781;SDS011;26493;51.938;7.626;2023-03-14T09:40:17;40.95;;;37.55;;
40781;SDS011;26493;51.938;7.626;2023-03-14T09:42:45;40.27;;;37.07;;
40781;SDS011;26493;51.938;7.626;2023-03-14T09:45:12;63.70;;;58.78;;
40781;SDS011;26493;51.938;7.626;2023-03-14T09:47:40;63.72;;;59.33;;
40781;SDS011;26493;51.938;7.626;2023-03-14T09:50:10;56.08;;;52.10;;
40781;SDS011;26493;51.938;7.626;2023-03-14T09:52:37;55.08;;;51.17;;
40781;SDS011;26493;51.938;7.626;2023-03-14T09:55:07;55.42;;;51.63;;
40781;SDS011;26493;51.938;7.626;2023-03-14T09:57:37;54.47;;;50.75;;
40781;SDS011;26493;51.938;7.626;2023-03-14T10:00:10;51.13;;;47.53;;
40781;SDS011;26493;51.938;7.626;2023-03-14T10:02:39;50.42;;;46.83;;
40781;SDS011;26493;51.938;7.626;2023-03-14T10:05:13;50.60;;;47.00;;
40781;SDS011;26493;51.938;7.626;2023-03-14T10:07:39;52.30;;;48.60;;
40781;SDS011;26493;51.938;7.626;2023-03-14T10:10:09;48.92;;;45.42;;
40781;SDS011;26493;51.938;7.626;2023-03-14T10:12:36;49.05;;;45.55;;
40781;SDS011;26493;51.938;7.626;2023-03-14T10:15:05;50.45;;;46.95;;
40781;SDS011;26493;51.938;7.626;2023-03-14T10:17:38;47.95;;;44.55;;
40781;SDS011;26493;51.938;7.626;2023-03-14T10:20:04;47.95;;;44.55;;
40781;SDS011;26493;51.938;7.626;2023-03-14T10:22:30;46.63;;;43.33;;
40781;SDS011;26493;51.938;7.626;2023-03-14T10:24:59;46.30;;;43.00;;
40781;SDS011;26493;51.938;7.626;2023-03-14T10:27:30;44.60;;;41.47;;
40781;SDS011;26493;51.938;7.626;2023-03-14T10:29:58;45.42;;;42.22;;
40781;SDS011;26493;51.938;7.626;2023-03-14T10:32:43;45.75;;;42.55;;
40781;SDS011;26493;51.938;7.626;2023-03-14T10:37:43;42.60;;;39.60;;
40781;SDS011;26493;51.938;7.626;2023-03-14T10:40:13;40.65;;;37.75;;
40781;SDS011;26493;51.938;7.626;2023-03-14T10:42:40;38.75;;;35.95;;
40781;SDS011;26493;51.938;7.626;2023-03-14T10:47:51;36.47;;;33.80;;
40781;SDS011;26493;51.938;7.626;2023-03-14T10:50:25;36.00;;;33.30;;
40781;SDS011;26493;51.938;7.626;2023-03-14T10:52:52;35.15;;;32.55;;
40781;SDS011;26493;51.938;7.626;2023-03-14T10:55:19;34.15;;;31.55;;
40781;SDS011;26493;51.938;7.626;2023-03-14T10:57:45;33.40;;;30.90;;
40781;SDS011;26493;51.938;7.626;2023-03-14T11:00:15;35.20;;;32.60;;
40781;SDS011;26493;51.938;7.626;2023-03-14T11:03:24;34.92;;;32.33;;
40781;SDS011;26493;51.938;7.626;2023-03-14T11:05:34;34.67;;;32.08;;
40781;SDS011;26493;51.938;7.626;2023-03-14T11:08:07;34.13;;;31.58;;
40781;SDS011;26493;51.938;7.626;2023-03-14T11:10:35;33.97;;;31.48;;
40781;SDS011;26493;51.938;7.626;2023-03-14T11:21:54;29.50;;;27.10;;
40781;SDS011;26493;51.938;7.626;2023-03-14T11:26:48;29.85;;;27.45;;
40781;SDS011;26493;51.938;7.626;2023-03-14T11:31:41;28.85;;;26.55;;
40781;SDS011;26493;51.938;7.626;2023-03-14T11:37:07;27.08;;;24.88;;
40781;SDS011;26493;51.938;7.626;2023-03-14T11:39:41;27.55;;;25.35;;
40781;SDS011;26493;51.938;7.626;2023-03-14T11:42:11;28.40;;;26.10;;
40781;SDS011;26493;51.938;7.626;2023-03-14T11:49:43;27.92;;;25.73;;
40781;SDS011;26493;51.938;7.626;2023-03-14T11:54:58;26.58;;;24.27;;
40781;SDS011;26493;51.938;7.626;2023-03-14T11:57:26;25.13;;;23.02;;
40781;SDS011;26493;51.938;7.626;2023-03-14T11:59:55;21.65;;;19.75;;
40781;SDS011;26493;51.938;7.626;2023-03-14T12:10:20;19.67;;;17.88;;
40781;SDS011;26493;51.938;7.626;2023-03-14T12:12:46;19.20;;;17.40;;
40781;SDS011;26493;51.938;7.626;2023-03-14T12:15:20;17.55;;;15.85;;
40781;SDS011;26493;51.938;7.626;2023-03-14T12:17:46;16.35;;;14.65;;
40781;SDS011;26493;51.938;7.626;2023-03-14T12:20:19;15.30;;;13.27;;
40781;SDS011;26493;51.938;7.626;2023-03-14T12:22:50;15.30;;;13.15;;
40781;SDS011;26493;51.938;7.626;2023-03-14T12:25:27;15.13;;;12.95;;
40781;SDS011;26493;51.938;7.626;2023-03-14T12:38:56;15.20;;;12.85;;
40781;SDS011;26493;51.938;7.626;2023-03-14T12:43:26;15.10;;;12.50;;
40781;SDS011;26493;51.938;7.626;2023-03-14T12:51:34;14.80;;;12.10;;
40781;SDS011;26493;51.938;7.626;2023-03-14T13:01:59;14.70;;;11.85;;
40781;SDS011;26493;51.938;7.626;2023-03-14T13:04:26;15.18;;;12.75;;
40781;SDS011;26493;51.938;7.626;2023-03-14T13:11:54;14.80;;;11.90;;
40781;SDS011;26493;51.938;7.626;2023-03-14T13:14:20;15.00;;;12.55;;
40781;SDS011;26493;51.938;7.626;2023-03-14T13:16:46;14.85;;;12.05;;
40781;SDS011;26493;51.938;7.626;2023-03-14T13:19:19;14.55;;;11.30;;
40781;SDS011;26493;51.938;7.626;2023-03-14T13:21:47;15.82;;;12.13;;
40781;SDS011;26493;51.938;7.626;2023-03-14T13:24:23;14.55;;;11.27;;
40781;SDS011;26493;51.938;7.626;2023-03-14T13:26:51;14.63;;;11.60;;
40781;SDS011;26493;51.938;7.626;2023-03-14T13:29:25;14.65;;;11.55;;
40781;SDS011;26493;51.938;7.626;2023-03-14T13:31:52;14.70;;;11.70;;
40781;SDS011;26493;51.938;7.626;2023-03-14T13:34:19;14.50;;;11.23;;
40781;SDS011;26493;51.938;7.626;2023-03-14T13:36:45;14.90;;;11.93;;
40781;SDS011;26493;51.938;7.626;2023-03-14T13:39:16;14.50;;;11.20;;
40781;SDS011;26493;51.938;7.626;2023-03-14T13:44:10;14.50;;;11.23;;
40781;SDS011;26493;51.938;7.626;2023-03-14T13:46:39;15.18;;;12.35;;
40781;SDS011;26493;51.938;7.626;2023-03-14T13:49:06;14.90;;;12.10;;
40781;SDS011;26493;51.938;7.626;2023-03-14T13:51:36;14.48;;;11.07;;
40781;SDS011;26493;51.938;7.626;2023-03-14T13:54:11;14.35;;;10.77;;
40781;SDS011;26493;51.938;7.626;2023-03-14T13:56:38;14.23;;;10.50;;
40781;SDS011;26493;51.938;7.626;2023-03-14T13:59:19;15.85;;;13.00;;
40781;SDS011;26493;51.938;7.626;2023-03-14T14:01:46;14.38;;;10.70;;
40781;SDS011;26493;51.938;7.626;2023-03-14T14:04:16;14.50;;;10.95;;
40781;SDS011;26493;51.938;7.626;2023-03-14T14:06:54;14.40;;;10.70;;
40781;SDS011;26493;51.938;7.626;2023-03-14T14:09:23;14.45;;;10.98;;
40781;SDS011;26493;51.938;7.626;2023-03-14T14:11:56;14.27;;;10.45;;
40781;SDS011;26493;51.938;7.626;2023-03-14T14:17:10;14.40;;;10.75;;
40781;SDS011;26493;51.938;7.626;2023-03-14T14:19:36;14.70;;;11.50;;
40781;SDS011;26493;51.938;7.626;2023-03-14T14:22:04;14.50;;;11.07;;
40781;SDS011;26493;51.938;7.626;2023-03-14T14:24:32;14.35;;;10.77;;
40781;SDS011;26493;51.938;7.626;2023-03-14T14:26:59;14.35;;;10.55;;
40781;SDS011;26493;51.938;7.626;2023-03-14T14:29:29;14.40;;;10.75;;
40781;SDS011;26493;51.938;7.626;2023-03-14T14:32:00;14.45;;;10.93;;
40781;SDS011;26493;51.938;7.626;2023-03-14T14:34:26;14.57;;;11.48;;
40781;SDS011;26493;51.938;7.626;2023-03-14T14:36:52;14.60;;;11.27;;
40781;SDS011;26493;51.938;7.626;2023-03-14T14:39:28;14.35;;;10.70;;
40781;SDS011;26493;51.938;7.626;2023-03-14T14:41:55;14.40;;;10.80;;
40781;SDS011;26493;51.938;7.626;2023-03-14T14:44:29;14.32;;;10.90;;
40781;SDS011;26493;51.938;7.626;2023-03-14T14:46:56;14.40;;;10.95;;
40781;SDS011;26493;51.938;7.626;2023-03-14T14:49:27;14.55;;;11.27;;
40781;SDS011;26493;51.938;7.626;2023-03-14T14:51:59;14.55;;;11.30;;
40781;SDS011;26493;51.938;7.626;2023-03-14T14:54:32;14.38;;;10.88;;
40781;SDS011;26493;51.938;7.626;2023-03-14T14:57:02;14.57;;;11.23;;
40781;SDS011;26493;51.938;7.626;2023-03-14T14:59:29;14.50;;;11.10;;
40781;SDS011;26493;51.938;7.626;2023-03-14T15:01:59;14.93;;;11.38;;
40781;SDS011;26493;51.938;7.626;2023-03-14T15:04:25;14.60;;;11.15;;
40781;SDS011;26493;51.938;7.626;2023-03-14T15:06:52;14.40;;;10.88;;
40781;SDS011;26493;51.938;7.626;2023-03-14T15:09:18;14.48;;;11.00;;
40781;SDS011;26493;51.938;7.626;2023-03-14T15:11:45;14.60;;;11.30;;
40781;SDS011;26493;51.938;7.626;2023-03-14T15:14:11;14.45;;;11.00;;
40781;SDS011;26493;51.938;7.626;2023-03-14T15:16:38;16.33;;;12.02;;
40781;SDS011;26493;51.938;7.626;2023-03-14T15:19:11;18.98;;;12.70;;
40781;SDS011;26493;51.938;7.626;2023-03-14T15:21:38;17.75;;;11.80;;
40781;SDS011;26493;51.938;7.626;2023-03-14T15:24:07;23.13;;;11.95;;
40781;SDS011;26493;51.938;7.626;2023-03-14T15:26:34;16.77;;;11.43;;
40781;SDS011;26493;51.938;7.626;2023-03-14T15:29:00;16.35;;;11.23;;
40781;SDS011;26493;51.938;7.626;2023-03-14T15:31:26;17.33;;;11.95;;
40781;SDS011;26493;51.938;7.626;2023-03-14T15:33:52;16.67;;;11.73;;
40781;SDS011;26493;51.938;7.626;2023-03-14T15:36:25;16.15;;;10.73;;
40781;SDS011;26493;51.938;7.626;2023-03-14T15:38:52;19.38;;;11.10;;
40781;SDS011;26493;51.938;7.626;2023-03-14T15:41:18;18.63;;;11.52;;
40781;SDS011;26493;51.938;7.626;2023-03-14T15:43:45;19.60;;;11.10;;
40781;SDS011;26493;51.938;7.626;2023-03-14T15:46:11;17.20;;;10.80;;
40781;SDS011;26493;51.938;7.626;2023-03-14T15:48:37;17.45;;;11.10;;
40781;SDS011;26493;51.938;7.626;2023-03-14T15:51:04;17.45;;;11.30;;